sensor_id;sensor_type;location;lat;lon;timestamp;pressure;altitude;pressure_sealevel;temperature;humidity
46946;BME280;32679;40.810;14.498;2023-02-20T00:00:01;101111.34;;;10.47;100.00
46946;BME280;32679;40.810;14.498;2023-02-20T00:02:26;101114.81;;;10.44;100.00
46946;BME280;32679;40.810;14.498;2023-02-20T00:04:52;101119.91;;;10.42;100.00
46946;BME280;32679;40.810;14.498;2023-02-20T00:07:17;101115.16;;;10.43;100.00
46946;BME280;32679;40.810;14.498;2023-02-20T00:09:43;101114.13;;;10.47;100.00
46946;BME280;32679;40.810;14.498;2023-02-20T00:12:08;101116.91;;;10.47;100.00
46946;BME280;32679;40.810;14.498;2023-02-20T00:14:34;101118.22;;;10.50;100.00
46946;BME280;32679;40.810;14.498;2023-02-20T00:17:01;101108.91;;;10.46;100.00
46946;BME280;32679;40.810;14.498;2023-02-20T00:19:27;101103.69;;;10.44;100.00
46946;BME280;32679;40.810;14.498;2023-02-20T00:21:52;101108.09;;;10.45;100.00
46946;BME280;32679;40.810;14.498;2023-02-20T00:24:19;101107.63;;;10.43;100.00
46946;BME280;32679;40.810;14.498;2023-02-20T00:26:49;101107.63;;;10.43;100.00
46946;BME280;32679;40.810;14.498;2023-02-20T00:29:16;101112.38;;;10.43;100.00
46946;BME280;32679;40.810;14.498;2023-02-20T00:31:42;101089.91;;;10.48;100.00
46946;BME280;32679;40.810;14.498;2023-02-20T00:34:08;101085.63;;;10.51;100.00
46946;BME280;32679;40.810;14.498;2023-02-20T00:36:33;101092.88;;;10.43;100.00
46946;BME280;32679;40.810;14.498;2023-02-20T00:38:59;101082.56;;;10.43;100.00
46946;BME280;32679;40.810;14.498;2023-02-20T00:41:26;101092.06;;;10.42;100.00
46946;BME280;32679;40.810;14.498;2023-02-20T00:43:52;101100.31;;;10.39;100.00
46946;BME280;32679;40.810;14.498;2023-02-20T00:46:17;101106.19;;;10.37;100.00
46946;BME280;32679;40.810;14.498;2023-02-20T00:48:43;101102.59;;;10.37;100.00
46946;BME280;32679;40.810;14.498;2023-02-20T00:51:08;101099.63;;;10.42;100.00
46946;BME280;32679;40.810;14.498;2023-02-20T00:53:34;101101.94;;;10.40;100.00
46946;BME280;32679;40.810;14.498;2023-02-20T00:55:59;101100.81;;;10.32;100.00
46946;BME280;32679;40.810;14.498;2023-02-20T00:58:25;101094.81;;;10.30;100.00
46946;BME280;32679;40.810;14.498;2023-02-20T01:00:50;101109.16;;;10.32;100.00
46946;BME280;32679;40.810;14.498;2023-02-20T01:03:16;101102.19;;;10.26;100.00
46946;BME280;32679;40.810;14.498;2023-02-20T01:05:41;101119.03;;;10.21;100.00
46946;BME280;32679;40.810;14.498;2023-02-20T01:08:06;101114.47;;;10.25;100.00
46946;BME280;32679;40.810;14.498;2023-02-20T01:10:32;101109.38;;;10.27;100.00
46946;BME280;32679;40.810;14.498;2023-02-20T01:12:57;101122.31;;;10.23;100.00
46946;BME280;32679;40.810;14.498;2023-02-20T01:15:23;101128.19;;;10.21;100.00
46946;BME280;32679;40.810;14.498;2023-02-20T01:17:48;101129.34;;;10.20;100.00
46946;BME280;32679;40.810;14.498;2023-02-20T01:20:14;101124.81;;;10.16;100.00
46946;BME280;32679;40.810;14.498;2023-02-20T01:22:41;101128.94;;;10.10;100.00
46946;BME280;32679;40.810;14.498;2023-02-20T01:25:07;101128.94;;;10.10;100.00
46946;BME280;32679;40.810;14.498;2023-02-20T01:27:32;101128.06;;;10.18;100.00
46946;BME280;32679;40.810;14.498;2023-02-20T01:29:58;101131.06;;;10.13;100.00
46946;BME280;32679;40.810;14.498;2023-02-20T01:32:23;101121.13;;;10.03;100.00
46946;BME280;32679;40.810;14.498;2023-02-20T01:34:49;101118.16;;;10.08;100.00
46946;BME280;32679;40.810;14.498;2023-02-20T01:37:14;101122.22;;;10.11;100.00
46946;BME280;32679;40.810;14.498;2023-02-20T01:39:40;101120.25;;;10.11;100.00
46946;BME280;32679;40.810;14.498;2023-02-20T01:42:07;101113.06;;;10.10;100.00
46946;BME280;32679;40.810;14.498;2023-02-20T01:44:36;101109.72;;;10.17;100.00
46946;BME280;32679;40.810;14.498;2023-02-20T01:47:09;101098.16;;;10.15;100.00
46946;BME280;32679;40.810;14.498;2023-02-20T01:49:43;101093.53;;;10.19;100.00
46946;BME280;32679;40.810;14.498;2023-02-20T01:52:16;101089.34;;;10.13;100.00
46946;BME280;32679;40.810;14.498;2023-02-20T01:54:46;101091.63;;;10.11;100.00
46946;BME280;32679;40.810;14.498;2023-02-20T01:57:18;101093.94;;;10.09;100.00
46946;BME280;32679;40.810;14.498;2023-02-20T01:59:45;101080.69;;;10.06;100.00
46946;BME280;32679;40.810;14.498;2023-02-20T02:02:11;101087.56;;;10.08;100.00
46946;BME280;32679;40.810;14.498;2023-02-20T02:04:38;101085.25;;;10.10;100.00
46946;BME280;32679;40.810;14.498;2023-02-20T02:07:07;101100.31;;;10.09;100.00
46946;BME280;32679;40.810;14.498;2023-02-20T02:12:03;101099.31;;;10.14;100.00
46946;BME280;32679;40.810;14.498;2023-02-20T02:14:29;101094.91;;;10.13;100.00
46946;BME280;32679;40.810;14.498;2023-02-20T02:17:11;101098.00;;;10.11;100.00
46946;BME280;32679;40.810;14.498;2023-02-20T02:19:52;101094.41;;;10.11;100.00
46946;BME280;32679;40.810;14.498;2023-02-20T02:28:33;101095.56;;;10.10;100.00
46946;BME280;32679;40.810;14.498;2023-02-20T02:39:30;101092.44;;;10.11;100.00
46946;BME280;32679;40.810;14.498;2023-02-20T02:44:56;101089.34;;;10.13;100.00
46946;BME280;32679;40.810;14.498;2023-02-20T02:47:44;101083.28;;;10.11;100.00
46946;BME280;32679;40.810;14.498;2023-02-20T02:50:19;101086.88;;;10.11;100.00
46946;BME280;32679;40.810;14.498;2023-02-20T02:52:47;101097.69;;;10.13;100.00
46946;BME280;32679;40.810;14.498;2023-02-20T02:55:23;101100.66;;;10.08;100.00
46946;BME280;32679;40.810;14.498;2023-02-20T02:57:49;101092.59;;;10.15;100.00
46946;BME280;32679;40.810;14.498;2023-02-20T03:00:19;101102.25;;;10.17;100.00
46946;BME280;32679;40.810;14.498;2023-02-20T03:05:20;101100.66;;;10.08;100.00
46946;BME280;32679;40.810;14.498;2023-02-20T03:07:51;101094.75;;;10.09;100.00
46946;BME280;32679;40.810;14.498;2023-02-20T03:10:21;101089.03;;;10.06;100.00
46946;BME280;32679;40.810;14.498;2023-02-20T03:13:00;101085.03;;;9.94;100.00
46946;BME280;32679;40.810;14.498;2023-02-20T03:15:31;101090.94;;;9.93;100.00
46946;BME280;32679;40.810;14.498;2023-02-20T03:20:58;101091.47;;;9.86;100.00
46946;BME280;32679;40.810;14.498;2023-02-20T03:23:31;101101.47;;;9.79;100.00
46946;BME280;32679;40.810;14.498;2023-02-20T03:26:01;101091.53;;;9.69;100.00
46946;BME280;32679;40.810;14.498;2023-02-20T03:31:08;101092.69;;;9.68;100.00
46946;BME280;32679;40.810;14.498;2023-02-20T03:33:39;101094.13;;;9.74;100.00
46946;BME280;32679;40.810;14.498;2023-02-20T03:36:54;101085.88;;;9.65;100.00
46946;BME280;32679;40.810;14.498;2023-02-20T03:39:44;101096.97;;;9.65;100.00
46946;BME280;32679;40.810;14.498;2023-02-20T03:42:33;101091.25;;;9.62;100.00
46946;BME280;32679;40.810;14.498;2023-02-20T03:45:23;101082.59;;;9.63;100.00
46946;BME280;32679;40.810;14.498;2023-02-20T03:47:53;101090.59;;;9.65;100.00
46946;BME280;32679;40.810;14.498;2023-02-20T03:50:22;101086.84;;;9.61;100.00
46946;BME280;32679;40.810;14.498;2023-02-20T03:53:06;101097.28;;;9.64;100.00
46946;BME280;32679;40.810;14.498;2023-02-20T03:55:31;101089.00;;;9.55;100.00
46946;BME280;32679;40.810;14.498;2023-02-20T03:58:03;101094.28;;;9.48;100.00
46946;BME280;32679;40.810;14.498;2023-02-20T04:00:32;101100.84;;;9.43;100.00
46946;BME280;32679;40.810;14.498;2023-02-20T04:03:06;101100.69;;;9.40;100.00
46946;BME280;32679;40.810;14.498;2023-02-20T04:05:37;101103.91;;;9.42;100.00
46946;BME280;32679;40.810;14.498;2023-02-20T04:08:07;101101.38;;;9.28;100.00
46946;BME280;32679;40.810;14.498;2023-02-20T04:13:16;101081.47;;;9.17;100.00
46946;BME280;32679;40.810;14.498;2023-02-20T04:15:44;101110.34;;;9.34;100.00
46946;BME280;32679;40.810;14.498;2023-02-20T04:18:14;101113.63;;;9.27;100.00
46946;BME280;32679;40.810;14.498;2023-02-20T04:20:42;101113.31;;;9.20;100.00
46946;BME280;32679;40.810;14.498;2023-02-20T04:23:14;101120.38;;;9.09;100.00
46946;BME280;32679;40.810;14.498;2023-02-20T04:25:46;101129.50;;;9.09;100.00
46946;BME280;32679;40.810;14.498;2023-02-20T04:28:14;101134.75;;;9.02;100.00
46946;BME280;32679;40.810;14.498;2023-02-20T04:30:40;101132.97;;;9.06;100.00
46946;BME280;32679;40.810;14.498;2023-02-20T04:33:12;101143.72;;;9.08;100.00
46946;BME280;32679;40.810;14.498;2023-02-20T04:35:38;101150.44;;;8.98;100.00
46946;BME280;32679;40.810;14.498;2023-02-20T04:38:06;101146.84;;;8.98;100.00
46946;BME280;32679;40.810;14.498;2023-02-20T04:40:36;101149.78;;;8.84;100.00
46946;BME280;32679;40.810;14.498;2023-02-20T04:43:02;101149.31;;;8.90;100.00
46946;BME280;32679;40.810;14.498;2023-02-20T04:45:27;101157.00;;;8.85;100.00
46946;BME280;32679;40.810;14.498;2023-02-20T04:47:53;101152.72;;;8.87;100.00
46946;BME280;32679;40.810;14.498;2023-02-20T04:50:23;101149.66;;;8.80;100.00
46946;BME280;32679;40.810;14.498;2023-02-20T04:52:48;101155.50;;;8.87;100.00
46946;BME280;32679;40.810;14.498;2023-02-20T04:55:16;101151.91;;;8.87;100.00
46946;BME280;32679;40.810;14.498;2023-02-20T04:57:45;101159.59;;;8.81;100.00
46946;BME280;32679;40.810;14.498;2023-02-20T05:00:12;101150.47;;;8.89;100.00
46946;BME280;32679;40.810;14.498;2023-02-20T05:02:39;101168.41;;;8.83;100.00
46946;BME280;32679;40.810;14.498;2023-02-20T05:05:05;101165.78;;;8.87;100.00
46946;BME280;32679;40.810;14.498;2023-02-20T05:07:32;101163.34;;;8.85;100.00
46946;BME280;32679;40.810;14.498;2023-02-20T05:10:00;101169.03;;;8.89;100.00
46946;BME280;32679;40.810;14.498;2023-02-20T05:12:25;101168.22;;;8.88;100.00
46946;BME280;32679;40.810;14.498;2023-02-20T05:14:51;101175.75;;;8.88;100.00
46946;BME280;32679;40.810;14.498;2023-02-20T05:17:16;101164.97;;;8.95;100.00
46946;BME280;32679;40.810;14.498;2023-02-20T05:19:42;101171.97;;;8.84;100.00
46946;BME280;32679;40.810;14.498;2023-02-20T05:22:12;101190.94;;;8.82;100.00
46946;BME280;32679;40.810;14.498;2023-02-20T05:24:48;101181.13;;;8.76;100.00
46946;BME280;32679;40.810;14.498;2023-02-20T05:27:16;101185.88;;;8.75;100.00
46946;BME280;32679;40.810;14.498;2023-02-20T05:29:49;101191.75;;;8.82;100.00
46946;BME280;32679;40.810;14.498;2023-02-20T05:32:16;101187.34;;;8.73;100.00
46946;BME280;32679;40.810;14.498;2023-02-20T05:34:45;101186.88;;;8.79;100.00
46946;BME280;32679;40.810;14.498;2023-02-20T05:37:16;101193.69;;;8.73;100.00
46946;BME280;32679;40.810;14.498;2023-02-20T05:39:42;101191.06;;;8.68;100.00
46946;BME280;32679;40.810;14.498;2023-02-20T05:42:12;101190.59;;;8.66;100.00
46946;BME280;32679;40.810;14.498;2023-02-20T05:44:37;101188.97;;;8.65;100.00
46946;BME280;32679;40.810;14.498;2023-02-20T05:47:06;101195.66;;;8.64;100.00
46946;BME280;32679;40.810;14.498;2023-02-20T05:49:33;101201.22;;;8.64;100.00
46946;BME280;32679;40.810;14.498;2023-02-20T05:51:59;101204.78;;;8.56;100.00
46946;BME280;32679;40.810;14.498;2023-02-20T05:54:25;101160.34;;;8.21;100.00
46946;BME280;32679;40.810;14.498;2023-02-20T05:56:51;101199.69;;;8.40;100.00
46946;BME280;32679;40.810;14.498;2023-02-20T05:59:19;101201.03;;;8.43;100.00
46946;BME280;32679;40.810;14.498;2023-02-20T06:01:46;101202.84;;;8.48;100.00
46946;BME280;32679;40.810;14.498;2023-02-20T06:04:15;101208.22;;;8.70;100.00
46946;BME280;32679;40.810;14.498;2023-02-20T06:06:41;101213.28;;;9.03;100.00
46946;BME280;32679;40.810;14.498;2023-02-20T06:09:10;101217.84;;;9.33;100.00
46946;BME280;32679;40.810;14.498;2023-02-20T06:11:39;101209.94;;;9.53;100.00
46946;BME280;32679;40.810;14.498;2023-02-20T06:14:08;101220.66;;;9.80;100.00
46946;BME280;32679;40.810;14.498;2023-02-20T06:16:34;101210.56;;;10.05;100.00
46946;BME280;32679;40.810;14.498;2023-02-20T06:19:00;101220.44;;;10.32;100.00
46946;BME280;32679;40.810;14.498;2023-02-20T06:21:26;101230.41;;;10.63;100.00
46946;BME280;32679;40.810;14.498;2023-02-20T06:23:53;101236.00;;;11.05;100.00
46946;BME280;32679;40.810;14.498;2023-02-20T06:26:22;101238.94;;;11.41;96.97
46946;BME280;32679;40.810;14.498;2023-02-20T06:28:48;101243.63;;;11.83;95.53
46946;BME280;32679;40.810;14.498;2023-02-20T06:31:26;101254.59;;;12.37;92.23
46946;BME280;32679;40.810;14.498;2023-02-20T06:33:53;101257.00;;;12.75;87.95
46946;BME280;32679;40.810;14.498;2023-02-20T06:36:24;101255.84;;;13.16;86.90
46946;BME280;32679;40.810;14.498;2023-02-20T06:38:50;101256.84;;;13.64;83.41
46946;BME280;32679;40.810;14.498;2023-02-20T06:41:16;101263.66;;;14.10;81.46
46946;BME280;32679;40.810;14.498;2023-02-20T06:43:44;101258.50;;;14.44;76.38
46946;BME280;32679;40.810;14.498;2023-02-20T06:46:10;101272.34;;;14.88;75.29
46946;BME280;32679;40.810;14.498;2023-02-20T06:48:45;101269.16;;;15.25;73.42
46946;BME280;32679;40.810;14.498;2023-02-20T06:51:17;101265.00;;;15.57;70.43
46946;BME280;32679;40.810;14.498;2023-02-20T06:53:43;101274.69;;;16.02;69.74
46946;BME280;32679;40.810;14.498;2023-02-20T06:56:10;101277.25;;;16.34;67.43
46946;BME280;32679;40.810;14.498;2023-02-20T06:58:36;101270.91;;;16.63;65.43
46946;BME280;32679;40.810;14.498;2023-02-20T07:01:01;101275.09;;;16.99;64.27
46946;BME280;32679;40.810;14.498;2023-02-20T07:03:27;101276.78;;;17.38;62.38
46946;BME280;32679;40.810;14.498;2023-02-20T07:06:02;101278.03;;;17.40;59.10
46946;BME280;32679;40.810;14.498;2023-02-20T07:08:28;101273.31;;;17.82;60.48
46946;BME280;32679;40.810;14.498;2023-02-20T07:10:55;101281.56;;;18.04;58.54
46946;BME280;32679;40.810;14.498;2023-02-20T07:13:21;101293.03;;;18.26;56.93
46946;BME280;32679;40.810;14.498;2023-02-20T07:15:49;101288.44;;;18.51;56.75
46946;BME280;32679;40.810;14.498;2023-02-20T07:18:15;101293.13;;;18.37;55.30
46946;BME280;32679;40.810;14.498;2023-02-20T07:20:42;101293.84;;;18.23;56.07
46946;BME280;32679;40.810;14.498;2023-02-20T07:23:07;101306.69;;;17.79;56.63
46946;BME280;32679;40.810;14.498;2023-02-20T07:25:33;101309.84;;;17.74;58.91
46946;BME280;32679;40.810;14.498;2023-02-20T07:27:58;101310.03;;;17.59;56.83
46946;BME280;32679;40.810;14.498;2023-02-20T07:30:24;101309.03;;;17.44;59.72
46946;BME280;32679;40.810;14.498;2023-02-20T07:32:50;101310.25;;;17.46;61.01
46946;BME280;32679;40.810;14.498;2023-02-20T07:35:15;101309.28;;;17.65;60.22
46946;BME280;32679;40.810;14.498;2023-02-20T07:37:41;101313.31;;;17.64;57.47
46946;BME280;32679;40.810;14.498;2023-02-20T07:40:07;101316.31;;;18.19;58.14
46946;BME280;32679;40.810;14.498;2023-02-20T07:42:35;101311.03;;;18.58;56.82
46946;BME280;32679;40.810;14.498;2023-02-20T07:45:06;101309.78;;;18.52;56.87
46946;BME280;32679;40.810;14.498;2023-02-20T07:47:31;101311.25;;;18.83;53.28
46946;BME280;32679;40.810;14.498;2023-02-20T07:49:57;101305.84;;;19.23;55.31
46946;BME280;32679;40.810;14.498;2023-02-20T07:52:22;101296.25;;;19.34;53.41
46946;BME280;32679;40.810;14.498;2023-02-20T07:54:50;101280.53;;;19.33;53.31
46946;BME280;32679;40.810;14.498;2023-02-20T07:57:15;101300.50;;;19.91;52.54
46946;BME280;32679;40.810;14.498;2023-02-20T07:59:41;101300.94;;;20.07;50.68
46946;BME280;32679;40.810;14.498;2023-02-20T08:02:06;101306.13;;;19.91;51.15
46946;BME280;32679;40.810;14.498;2023-02-20T08:04:32;101300.47;;;19.83;51.36
46946;BME280;32679;40.810;14.498;2023-02-20T08:06:57;101311.50;;;19.26;54.04
46946;BME280;32679;40.810;14.498;2023-02-20T08:09:23;101306.63;;;19.16;55.31
46946;BME280;32679;40.810;14.498;2023-02-20T08:11:48;101291.41;;;19.38;55.35
46946;BME280;32679;40.810;14.498;2023-02-20T08:14:15;101274.47;;;19.35;53.08
46946;BME280;32679;40.810;14.498;2023-02-20T08:16:40;101301.06;;;19.30;54.08
46946;BME280;32679;40.810;14.498;2023-02-20T08:19:06;101298.00;;;19.64;52.58
46946;BME280;32679;40.810;14.498;2023-02-20T08:21:31;101298.22;;;19.23;56.16
46946;BME280;32679;40.810;14.498;2023-02-20T08:23:57;101293.38;;;18.65;57.34
46946;BME280;32679;40.810;14.498;2023-02-20T08:26:22;101296.25;;;19.34;55.06
46946;BME280;32679;40.810;14.498;2023-02-20T08:28:48;101294.78;;;19.69;53.84
46946;BME280;32679;40.810;14.498;2023-02-20T08:31:14;101297.94;;;19.57;54.46
46946;BME280;32679;40.810;14.498;2023-02-20T08:33:40;101301.31;;;19.04;54.84
46946;BME280;32679;40.810;14.498;2023-02-20T08:36:26;101289.34;;;18.66;56.61
46946;BME280;32679;40.810;14.498;2023-02-20T08:38:52;101289.44;;;19.46;54.78
46946;BME280;32679;40.810;14.498;2023-02-20T08:41:19;101281.91;;;19.86;53.08
46946;BME280;32679;40.810;14.498;2023-02-20T08:43:45;101289.28;;;20.48;51.62
46946;BME280;32679;40.810;14.498;2023-02-20T08:46:10;101288.44;;;20.76;48.60
46946;BME280;32679;40.810;14.498;2023-02-20T08:48:39;101292.06;;;20.87;50.30
46946;BME280;32679;40.810;14.498;2023-02-20T08:51:05;101285.59;;;20.01;49.48
46946;BME280;32679;40.810;14.498;2023-02-20T08:53:32;101283.44;;;19.55;51.22
46946;BME280;32679;40.810;14.498;2023-02-20T08:55:57;101292.22;;;19.35;51.69
46946;BME280;32679;40.810;14.498;2023-02-20T08:58:24;101268.22;;;19.92;51.15
46946;BME280;32679;40.810;14.498;2023-02-20T09:00:50;101290.09;;;20.59;49.16
46946;BME280;32679;40.810;14.498;2023-02-20T09:03:16;101292.50;;;20.78;49.47
46946;BME280;32679;40.810;14.498;2023-02-20T09:05:42;101293.72;;;20.49;50.42
46946;BME280;32679;40.810;14.498;2023-02-20T09:08:10;101289.63;;;19.93;51.00
46946;BME280;32679;40.810;14.498;2023-02-20T09:10:37;101291.22;;;20.01;52.52
46946;BME280;32679;40.810;14.498;2023-02-20T09:13:05;101290.06;;;20.80;49.07
46946;BME280;32679;40.810;14.498;2023-02-20T09:15:30;101290.75;;;21.34;47.22
46946;BME280;32679;40.810;14.498;2023-02-20T09:18:03;101291.69;;;20.88;47.37
46946;BME280;32679;40.810;14.498;2023-02-20T09:20:29;101280.78;;;20.76;48.74
46946;BME280;32679;40.810;14.498;2023-02-20T09:22:57;101294.53;;;20.74;48.03
46946;BME280;32679;40.810;14.498;2023-02-20T09:25:23;101282.78;;;20.44;48.75
46946;BME280;32679;40.810;14.498;2023-02-20T09:27:49;101278.56;;;19.52;51.46
46946;BME280;32679;40.810;14.498;2023-02-20T09:30:18;101278.72;;;19.95;49.97
46946;BME280;32679;40.810;14.498;2023-02-20T09:32:46;101286.44;;;20.40;48.44
46946;BME280;32679;40.810;14.498;2023-02-20T09:35:21;101284.84;;;20.47;48.77
46946;BME280;32679;40.810;14.498;2023-02-20T09:37:47;101286.84;;;20.60;46.91
46946;BME280;32679;40.810;14.498;2023-02-20T09:40:15;101281.22;;;20.53;48.74
46946;BME280;32679;40.810;14.498;2023-02-20T09:45:51;101284.81;;;20.39;46.87
46946;BME280;32679;40.810;14.498;2023-02-20T09:48:39;101281.91;;;21.04;45.37
46946;BME280;32679;40.810;14.498;2023-02-20T09:51:18;101283.88;;;21.28;44.80
46946;BME280;32679;40.810;14.498;2023-02-20T09:56:30;101275.53;;;20.25;46.93
46946;BME280;32679;40.810;14.498;2023-02-20T09:59:16;101298.97;;;20.72;46.15
46946;BME280;32679;40.810;14.498;2023-02-20T10:02:00;101299.38;;;20.66;46.58
46946;BME280;32679;40.810;14.498;2023-02-20T10:04:38;101286.84;;;20.35;47.72
46946;BME280;32679;40.810;14.498;2023-02-20T10:07:28;101297.72;;;21.01;45.18
46946;BME280;32679;40.810;14.498;2023-02-20T10:09:56;101296.94;;;20.76;45.88
46946;BME280;32679;40.810;14.498;2023-02-20T10:12:33;101299.97;;;21.56;44.81
46946;BME280;32679;40.810;14.498;2023-02-20T10:17:53;101288.34;;;21.36;42.88
46946;BME280;32679;40.810;14.498;2023-02-20T10:20:35;101286.03;;;20.60;44.48
46946;BME280;32679;40.810;14.498;2023-02-20T10:25:57;101277.13;;;20.44;45.39
46946;BME280;32679;40.810;14.498;2023-02-20T10:28:24;101269.38;;;21.12;45.64
46946;BME280;32679;40.810;14.498;2023-02-20T10:35:56;101269.88;;;20.42;47.26
46946;BME280;32679;40.810;14.498;2023-02-20T10:38:28;101273.09;;;20.37;47.40
46946;BME280;32679;40.810;14.498;2023-02-20T10:44:09;101262.63;;;20.63;47.38
46946;BME280;32679;40.810;14.498;2023-02-20T10:46:47;101267.34;;;21.12;46.75
46946;BME280;32679;40.810;14.498;2023-02-20T10:49:24;101264.16;;;21.07;46.84
46946;BME280;32679;40.810;14.498;2023-02-20T10:51:51;101264.19;;;21.00;47.34
46946;BME280;32679;40.810;14.498;2023-02-20T10:54:27;101256.94;;;20.70;47.66
46946;BME280;32679;40.810;14.498;2023-02-20T10:57:01;101258.38;;;21.42;44.56
46946;BME280;32679;40.810;14.498;2023-02-20T11:02:14;101252.84;;;20.92;46.67
46946;BME280;32679;40.810;14.498;2023-02-20T11:04:47;101257.38;;;20.58;44.59
46946;BME280;32679;40.810;14.498;2023-02-20T11:07:15;101255.72;;;20.89;44.09
46946;BME280;32679;40.810;14.498;2023-02-20T11:09:43;101255.09;;;21.51;43.21
46946;BME280;32679;40.810;14.498;2023-02-20T11:12:29;101249.38;;;21.62;43.19
46946;BME280;32679;40.810;14.498;2023-02-20T11:15:04;101241.84;;;21.23;43.52
46946;BME280;32679;40.810;14.498;2023-02-20T11:17:31;101234.34;;;20.41;42.85
46946;BME280;32679;40.810;14.498;2023-02-20T11:19:59;101229.88;;;20.65;43.64
46946;BME280;32679;40.810;14.498;2023-02-20T11:22:48;101227.56;;;21.52;41.71
46946;BME280;32679;40.810;14.498;2023-02-20T11:25:30;101205.94;;;21.83;40.40
46946;BME280;32679;40.810;14.498;2023-02-20T11:28:18;101227.69;;;21.27;42.04
46946;BME280;32679;40.810;14.498;2023-02-20T11:30:47;101223.84;;;20.67;43.17
46946;BME280;32679;40.810;14.498;2023-02-20T11:33:22;101220.22;;;21.68;39.62
46946;BME280;32679;40.810;14.498;2023-02-20T11:36:09;101221.59;;;21.42;40.48
46946;BME280;32679;40.810;14.498;2023-02-20T11:38:36;101219.81;;;20.07;43.75
46946;BME280;32679;40.810;14.498;2023-02-20T11:41:06;101202.03;;;19.78;43.92
46946;BME280;32679;40.810;14.498;2023-02-20T11:43:39;101205.28;;;20.27;42.83
46946;BME280;32679;40.810;14.498;2023-02-20T11:46:18;101210.47;;;20.85;41.37
46946;BME280;32679;40.810;14.498;2023-02-20T11:49:00;101208.47;;;20.79;40.65
46946;BME280;32679;40.810;14.498;2023-02-20T11:51:43;101203.50;;;21.15;40.86
46946;BME280;32679;40.810;14.498;2023-02-20T11:54:21;101199.19;;;20.64;40.99
46946;BME280;32679;40.810;14.498;2023-02-20T11:57:21;101203.25;;;20.13;41.95
46946;BME280;32679;40.810;14.498;2023-02-20T12:00:28;101198.44;;;20.10;41.45
46946;BME280;32679;40.810;14.498;2023-02-20T12:03:05;101199.66;;;20.09;40.92
46946;BME280;32679;40.810;14.498;2023-02-20T12:05:40;101194.34;;;20.39;41.02
46946;BME280;32679;40.810;14.498;2023-02-20T12:11:29;101185.50;;;20.02;42.28
46946;BME280;32679;40.810;14.498;2023-02-20T12:13:56;101177.03;;;19.87;42.56
46946;BME280;32679;40.810;14.498;2023-02-20T12:19:23;101173.81;;;19.82;42.51
46946;BME280;32679;40.810;14.498;2023-02-20T12:22:17;101172.56;;;19.76;42.92
46946;BME280;32679;40.810;14.498;2023-02-20T12:35:35;101159.28;;;20.15;43.46
46946;BME280;32679;40.810;14.498;2023-02-20T12:52:37;101157.22;;;19.59;43.54
46946;BME280;32679;40.810;14.498;2023-02-20T12:55:17;101127.41;;;19.69;43.54
46946;BME280;32679;40.810;14.498;2023-02-20T13:01:05;101153.56;;;19.51;44.27
46946;BME280;32679;40.810;14.498;2023-02-20T13:06:03;101153.59;;;19.55;43.58
46946;BME280;32679;40.810;14.498;2023-02-20T13:08:36;101154.38;;;19.52;43.29
46946;BME280;32679;40.810;14.498;2023-02-20T13:11:12;101146.25;;;19.18;44.78
46946;BME280;32679;40.810;14.498;2023-02-20T13:16:36;101126.91;;;19.20;45.59
46946;BME280;32679;40.810;14.498;2023-02-20T13:19:26;101147.53;;;19.56;44.13
46946;BME280;32679;40.810;14.498;2023-02-20T13:21:55;101135.31;;;19.06;44.66
46946;BME280;32679;40.810;14.498;2023-02-20T13:26:52;101145.78;;;18.98;45.04
46946;BME280;32679;40.810;14.498;2023-02-20T13:29:23;101145.38;;;19.00;45.48
46946;BME280;32679;40.810;14.498;2023-02-20T13:31:56;101136.56;;;19.16;45.31
46946;BME280;32679;40.810;14.498;2023-02-20T13:34:28;101138.50;;;19.01;44.93
46946;BME280;32679;40.810;14.498;2023-02-20T13:36:57;101138.50;;;18.94;45.95
46946;BME280;32679;40.810;14.498;2023-02-20T13:39:38;101145.28;;;18.78;46.58
46946;BME280;32679;40.810;14.498;2023-02-20T13:42:26;101138.44;;;18.79;45.41
46946;BME280;32679;40.810;14.498;2023-02-20T13:44:52;101138.25;;;18.44;46.69
46946;BME280;32679;40.810;14.498;2023-02-20T13:47:29;101097.13;;;18.36;46.72
46946;BME280;32679;40.810;14.498;2023-02-20T13:49:56;101130.75;;;18.73;47.98
46946;BME280;32679;40.810;14.498;2023-02-20T14:02:43;101127.03;;;18.58;48.71
46946;BME280;32679;40.810;14.498;2023-02-20T14:05:19;101125.28;;;18.36;48.39
46946;BME280;32679;40.810;14.498;2023-02-20T14:07:45;101121.56;;;18.21;48.41
46946;BME280;32679;40.810;14.498;2023-02-20T14:10:30;101123.03;;;18.63;47.34
46946;BME280;32679;40.810;14.498;2023-02-20T14:15:43;101121.91;;;18.71;48.24
46946;BME280;32679;40.810;14.498;2023-02-20T14:18:16;101124.63;;;18.56;49.14
46946;BME280;32679;40.810;14.498;2023-02-20T14:20:42;101123.28;;;18.32;51.22
46946;BME280;32679;40.810;14.498;2023-02-20T14:25:58;101131.34;;;17.83;53.13
46946;BME280;32679;40.810;14.498;2023-02-20T14:28:24;101119.59;;;17.73;54.12
46946;BME280;32679;40.810;14.498;2023-02-20T14:33:30;101121.53;;;18.14;56.35
46946;BME280;32679;40.810;14.498;2023-02-20T14:41:52;101120.13;;;17.42;56.37
46946;BME280;32679;40.810;14.498;2023-02-20T14:44:18;101108.81;;;17.38;57.14
46946;BME280;32679;40.810;14.498;2023-02-20T14:46:44;101106.41;;;17.37;58.12
46946;BME280;32679;40.810;14.498;2023-02-20T14:49:14;101108.63;;;17.20;60.00
46946;BME280;32679;40.810;14.498;2023-02-20T14:51:39;101105.34;;;17.11;61.70